PORT of FAABORG HAVN

Država: Denmark Država: Denmark [DK]
Latitude/Longitude: 55.094° / 10.235° Prikaži na mapi
Vrijeme:  [UTC +2]
UN/LOCODE: DKFAA
Brod je Trenutno u Luci: 2

Posljednji dolasci i odlasci


Ime broda
Dolazak (UTC)
Dolazak (LT)
Isplovljenje (UTC)
Isplovljenje (LT)
Vessel Type: Putnički brodovi  FAABORG III 2014-08-22 19:20:00 2014-08-22 21:20:00
Vessel Type: Putnički brodovi  FAABORG III 2014-08-22 17:25:00 2014-08-22 19:25:00 2014-08-22 18:05:00 2014-08-22 20:05:00
Vessel Type: Putnički brodovi  FAABORG III 2014-08-22 15:30:00 2014-08-22 17:30:00 2014-08-22 16:05:00 2014-08-22 18:05:00
Vessel Type: Putnički brodovi  FAABORG III 2014-08-22 13:31:00 2014-08-22 15:31:00 2014-08-22 14:07:00 2014-08-22 16:07:00
Vessel Type: Putnički brodovi  SKJOLDNAES 2014-08-22 13:38:00 2014-08-22 15:38:00 2014-08-22 14:03:00 2014-08-22 16:03:00
Vessel Type: Putnički brodovi  FAABORG III 2014-08-22 11:32:00 2014-08-22 13:32:00 2014-08-22 12:08:00 2014-08-22 14:08:00
Vessel Type: Putnički brodovi  FAABORG III 2014-08-22 09:34:00 2014-08-22 11:34:00 2014-08-22 10:06:00 2014-08-22 12:06:00
Vessel Type: Putnički brodovi  SKJOLDNAES 2014-08-22 08:08:00 2014-08-22 10:08:00 2014-08-22 08:46:00 2014-08-22 10:46:00
Vessel Type: Putnički brodovi  FAABORG III 2014-08-22 07:36:00 2014-08-22 09:36:00 2014-08-22 08:07:00 2014-08-22 10:07:00
Vessel Type: Putnički brodovi  FAABORG III 2014-08-22 05:25:00 2014-08-22 07:25:00 2014-08-22 06:06:00 2014-08-22 08:06:00

Očekivani dolasci


Ime broda
Scheduled Arrival (UTC)
Dolazak planiran (lokalno)
Približno vrijeme dolaska (UTC)
Približno vrijeme dolaska (lokalno)
Podaci nisu pronađeni

Wind Forecast


    
Vrijeme (UTC)
Brzina
Direction
Temperature
2014-08-22 21:00:00 17 knots 240° 15°C
2014-08-23 00:00:00 15 knots 270° 14°C
2014-08-23 03:00:00 16 knots 261° 14°C
2014-08-23 06:00:00 17 knots 260° 14°C
2014-08-23 09:00:00 17 knots 264° 14°C
2014-08-23 12:00:00 17 knots 264° 15°C
2014-08-23 15:00:00 18 knots 264° 15°C
2014-08-23 18:00:00 19 knots 260° 15°C
2014-08-23 21:00:00 19 knots 268° 14°C
2014-08-24 00:00:00 16 knots 282° 14°C
2014-08-24 03:00:00 16 knots 281° 14°C
2014-08-24 06:00:00 16 knots 273° 13°C
2014-08-24 09:00:00 20 knots 261° 14°C
2014-08-24 12:00:00 22 knots 263° 15°C
2014-08-24 15:00:00 24 knots 280° 15°C
2014-08-24 18:00:00 25 knots 285° 15°C
2014-08-24 21:00:00 24 knots 283° 14°C